메인 페이지
METAR-TAF:

METAR-TAF

공항 :

쿠웨이트, 쿠웨이트

쿠웨이트 국제공항

위도: 29-13N, 경도: 047-59E, 고도: 55m

현재 날씨관측

예보는 8분 전, 01:00시(UTC)에 발표되었습니다.
남남동23kt
온도 23°C
습도 53%
기압 1006 hPa
시정: 4000m
날린먼지

METAR: OKBK 180100Z 15023KT 4000 BLDU NSC 23/13 Q1006 NOSIG

시각: 04:08 (01:08 UTC)

예보

예보는 20 시간 23분 전, 04:45시(UTC)에 발표되었습니다.
예보 대상 시간: 17일 06시부터 18일 12시까지 (UTC)
남남동12kt, 순간 최대 풍속 22kt
시정: 6000m
일시적
17일 06시부터 17일 18시까지 (UTC)
시정: 3000m
날린먼지

TAF: OKBK 170445Z 1706/1812 16012G22KT 6000 NSC TEMPO 1706/1718 3000 BLDU

4,000개 이상의 공항 관측 자료 및 예보 (METAR 및 TAF 보고).

지도상에서 검색 가능한 기상관측소가 노란 점과 빨간 점으로 표시되어 있습니다.

기상관측소 명을 보려면 표시 위로 마우스를 이동하세요.

날씨 관측과 예보를 보려면 클릭하세요.

지도 변경 : 확대하려면 엑스 표시가 있는 녹색 버튼, 축소하려면 빼기 표시가 있는 녹색 버튼, 다음 페이지의 지도를 보려면 녹색 화살표를 클릭하세요.


METAR-TAF: